Time;durP1;ratioP1;P1;durP2;ratioP2;P2;SDS_P1;SDS_P2;PMS_P1;PMS_P2;Temp;Humidity;BMP_temperature;BMP_pressure;BME280_temperature;BME280_humidity;BME280_pressure;Samples;Min_cycle;Max_cycle;Signal;HPM_P1;HPM_P2
2021/12/19 00:00:16;;;;;;;10.93;7.07;;;;;;;1.80;100.00;100892.53;5075159;28;20203;-78
2021/12/19 00:02:59;;;;;;;23.57;8.43;;;;;;;1.95;100.00;100909.72;5090616;28;20220;-77
2021/12/19 00:08:34;;;;;;;13.63;7.60;;;;;;;1.93;100.00;100905.28;5041734;28;20202;-77
2021/12/19 00:11:01;;;;;;;44.20;18.93;;;;;;;1.66;100.00;100884.00;5073295;28;20194;-77
2021/12/19 00:13:28;;;;;;;5.17;3.83;;;;;;;1.83;100.00;100900.41;5092157;28;20185;-76
2021/12/19 00:15:57;;;;;;;11.27;6.70;;;;;;;1.43;100.00;100818.69;5088199;28;20624;-77
2021/12/19 00:18:24;;;;;;;9.20;6.30;;;;;;;1.90;100.00;100906.00;5083531;28;20198;-78
2021/12/19 00:20:51;;;;;;;9.77;6.50;;;;;;;1.94;100.00;100887.50;5078104;28;20214;-77
2021/12/19 00:23:19;;;;;;;12.27;7.50;;;;;;;1.90;100.00;100911.09;5072695;28;20248;-77
2021/12/19 00:25:46;;;;;;;13.60;8.63;;;;;;;1.89;100.00;100898.25;5075652;28;20662;-77
2021/12/19 00:28:13;;;;;;;9.30;5.90;;;;;;;1.73;100.00;100860.59;5086750;28;20195;-77
2021/12/19 00:30:39;;;;;;;14.73;9.47;;;;;;;1.87;100.00;100904.91;5083894;28;20646;-76
2021/12/19 00:33:08;;;;;;;11.00;7.77;;;;;;;2.01;100.00;100898.97;5092159;28;20661;-77
2021/12/19 00:35:34;;;;;;;19.40;10.07;;;;;;;1.83;100.00;100887.63;5090134;28;20195;-77
2021/12/19 00:38:01;;;;;;;14.87;7.27;;;;;;;1.94;100.00;100886.59;5085367;28;20222;-77
2021/12/19 00:40:28;;;;;;;13.10;7.93;;;;;;;1.88;100.00;100897.34;5081747;28;20693;-78
2021/12/19 00:43:04;;;;;;;3.50;3.20;;;;;;;1.95;100.00;100890.94;5084579;28;20198;-77
2021/12/19 00:45:34;;;;;;;14.70;6.83;;;;;;;1.89;100.00;100888.03;5078032;28;20313;-77
2021/12/19 00:48:02;;;;;;;14.57;8.00;;;;;;;1.87;100.00;100884.47;5083690;28;20561;-77
2021/12/19 00:50:31;;;;;;;6.10;4.27;;;;;;;1.91;100.00;100884.75;5091016;28;20197;-77
2021/12/19 00:52:58;;;;;;;9.07;5.10;;;;;;;1.89;100.00;100877.78;5091668;28;20198;-77
2021/12/19 00:55:27;;;;;;;12.37;7.40;;;;;;;1.88;100.00;100881.13;5082093;28;20199;-77
2021/12/19 00:57:54;;;;;;;16.83;9.67;;;;;;;1.80;100.00;100872.09;5078693;28;20190;-76
2021/12/19 01:00:25;;;;;;;9.33;5.63;;;;;;;1.89;100.00;100867.56;5081178;28;20195;-77
2021/12/19 01:02:54;;;;;;;11.67;6.53;;;;;;;1.80;100.00;100866.97;5086705;28;20194;-76
2021/12/19 01:05:21;;;;;;;9.57;6.33;;;;;;;1.55;100.00;100817.69;5091055;28;20240;-77
2021/12/19 01:07:50;;;;;;;11.77;6.60;;;;;;;1.80;100.00;100857.63;5092145;28;20201;-77
2021/12/19 01:10:17;;;;;;;7.87;5.87;;;;;;;1.82;100.00;100856.03;5091628;28;20237;-76
2021/12/19 01:12:43;;;;;;;4.37;3.83;;;;;;;1.81;100.00;100848.31;5078907;28;20677;-77
2021/12/19 01:15:13;;;;;;;5.27;3.43;;;;;;;1.73;100.00;100844.38;5079020;28;20665;-77
2021/12/19 01:17:40;;;;;;;9.40;6.60;;;;;;;1.81;100.00;100843.19;5086622;28;20191;-76
2021/12/19 01:20:13;;;;;;;5.37;4.87;;;;;;;1.61;100.00;100839.38;5075383;28;20608;-77
2021/12/19 01:22:40;;;;;;;14.97;8.07;;;;;;;1.64;100.00;100839.56;5080053;28;20202;-76
2021/12/19 01:25:09;;;;;;;10.07;5.93;;;;;;;1.66;100.00;100837.13;5071751;28;20223;-77
2021/12/19 01:27:36;;;;;;;17.80;8.83;;;;;;;1.63;100.00;100824.16;5071613;28;20190;-76
2021/12/19 01:30:05;;;;;;;24.17;12.30;;;;;;;1.70;100.00;100828.84;5071168;28;20195;-77
2021/12/19 01:32:31;;;;;;;27.67;15.67;;;;;;;1.54;100.00;100821.91;5081686;28;20617;-76
2021/12/19 01:34:58;;;;;;;22.03;12.43;;;;;;;1.64;100.00;100826.78;5089722;28;20209;-78
2021/12/19 01:37:25;;;;;;;14.40;8.97;;;;;;;1.48;100.00;100826.63;5088269;28;20754;-77
2021/12/19 01:39:52;;;;;;;10.60;6.27;;;;;;;1.43;100.00;100828.00;5071676;28;20195;-76
2021/12/19 01:42:20;;;;;;;33.53;14.97;;;;;;;1.48;100.00;100817.31;5079625;28;20672;-77
2021/12/19 01:44:48;;;;;;;29.50;14.50;;;;;;;1.68;100.00;100809.97;5089698;28;20217;-77
2021/12/19 01:47:15;;;;;;;9.03;5.23;;;;;;;1.70;100.00;100803.31;5077083;28;20666;-76
2021/12/19 01:49:42;;;;;;;13.30;8.03;;;;;;;1.42;100.00;100745.41;5075266;28;20571;-77
2021/12/19 01:52:09;;;;;;;18.17;9.70;;;;;;;1.49;100.00;100808.84;5092532;28;20629;-77
2021/12/19 01:54:36;;;;;;;21.30;10.90;;;;;;;1.48;100.00;100801.97;5090936;28;20195;-76
2021/12/19 01:57:03;;;;;;;25.07;12.20;;;;;;;1.40;100.00;100798.06;5075541;28;20202;-77
2021/12/19 01:59:31;;;;;;;38.73;15.43;;;;;;;1.54;100.00;100791.22;5080068;28;20224;-77
2021/12/19 02:01:58;;;;;;;62.47;20.67;;;;;;;1.64;100.00;100785.91;5089997;28;20574;-76
2021/12/19 02:04:29;;;;;;;33.00;14.83;;;;;;;1.39;100.00;100775.84;5084084;28;20206;-78
2021/12/19 02:06:56;;;;;;;25.23;12.33;;;;;;;0.95;100.00;100698.16;5094422;28;20229;-77
2021/12/19 02:09:24;;;;;;;11.07;4.57;;;;;;;1.67;100.00;100775.88;5095199;28;20198;-77
2021/12/19 02:11:51;;;;;;;17.27;9.37;;;;;;;1.61;100.00;100772.06;5090310;28;20213;-76
2021/12/19 02:14:18;;;;;;;18.90;9.53;;;;;;;1.56;100.00;100776.00;5075057;28;20219;-76
2021/12/19 02:16:47;;;;;;;34.03;13.27;;;;;;;1.65;100.00;100771.44;5074786;28;20206;-76
2021/12/19 02:19:14;;;;;;;25.63;12.17;;;;;;;1.58;100.00;100767.66;5075559;28;20206;-77
2021/12/19 02:21:43;;;;;;;18.20;9.00;;;;;;;1.66;100.00;100768.13;5090046;28;20205;-76
2021/12/19 02:24:12;;;;;;;11.37;6.57;;;;;;;1.69;100.00;100751.28;5074640;28;20195;-76
2021/12/19 02:26:40;;;;;;;9.80;6.37;;;;;;;1.65;100.00;100756.13;5074778;28;20218;-76
2021/12/19 02:29:07;;;;;;;23.63;8.80;;;;;;;1.66;100.00;100747.66;5086410;28;20232;-78
2021/12/19 02:31:34;;;;;;;31.27;9.80;;;;;;;1.65;100.00;100748.44;5092900;28;20660;-77
2021/12/19 02:34:05;;;;;;;10.80;5.13;;;;;;;1.69;100.00;100740.19;5075643;28;20202;-77
2021/12/19 02:36:47;;;;;;;10.37;3.87;;;;;;;1.66;100.00;100740.00;5075310;28;20233;-76
2021/12/19 02:39:46;;;;;;;23.33;11.20;;;;;;;1.46;100.00;100705.59;5074418;28;20221;-77
2021/12/19 02:50:26;;;;;;;2.73;1.97;;;;;;;1.52;100.00;100728.06;5074482;28;20259;-76
2021/12/19 02:52:53;;;;;;;5.30;3.60;;;;;;;1.56;100.00;100723.25;5085322;28;20282;-76
2021/12/19 02:55:22;;;;;;;17.13;6.37;;;;;;;1.66;100.00;100719.56;5084253;28;20281;-76
2021/12/19 02:57:50;;;;;;;10.03;5.13;;;;;;;1.50;100.00;100722.84;5074913;28;20203;-77
2021/12/19 03:00:21;;;;;;;16.13;11.47;;;;;;;1.38;100.00;100717.91;5079853;28;20213;-76
2021/12/19 03:02:49;;;;;;;11.53;6.97;;;;;;;1.36;100.00;100709.25;5081955;28;20195;-78
2021/12/19 03:05:16;;;;;;;18.40;9.87;;;;;;;1.47;100.00;100712.44;5074002;28;20194;-77
2021/12/19 03:07:44;;;;;;;15.60;8.23;;;;;;;1.42;100.00;100712.19;5073878;28;20190;-78
2021/12/19 03:13:24;;;;;;;3.47;3.17;;;;;;;1.41;100.00;100707.84;5035048;28;20239;-77
2021/12/19 03:18:36;;;;;;;6.43;4.97;;;;;;;1.44;100.00;100702.94;5059150;28;20212;-76
2021/12/19 03:21:03;;;;;;;8.63;5.70;;;;;;;1.31;100.00;100695.31;5076627;28;20246;-77
2021/12/19 03:23:30;;;;;;;6.03;5.40;;;;;;;1.38;100.00;100692.34;5073450;28;20715;-78
2021/12/19 03:25:56;;;;;;;10.67;6.33;;;;;;;1.36;100.00;100683.69;5073684;28;20214;-77
2021/12/19 03:28:25;;;;;;;8.03;4.50;;;;;;;1.28;100.00;100674.69;5073570;28;20195;-76
2021/12/19 03:30:52;;;;;;;12.57;7.83;;;;;;;1.29;100.00;100671.34;5086814;28;20280;-77
2021/12/19 03:33:19;;;;;;;7.33;6.20;;;;;;;0.56;100.00;100547.66;5093390;28;20193;-78
2021/12/19 03:35:46;;;;;;;17.40;8.37;;;;;;;1.28;100.00;100666.16;5094051;28;20244;-77
2021/12/19 03:38:15;;;;;;;20.67;7.40;;;;;;;1.10;100.00;100625.06;5093474;28;20661;-76
2021/12/19 03:40:51;;;;;;;6.70;4.53;;;;;;;1.28;100.00;100664.50;5085807;28;20695;-78
2021/12/19 03:43:19;;;;;;;10.60;7.07;;;;;;;1.26;100.00;100663.50;5093723;28;20208;-78
2021/12/19 03:45:48;;;;;;;6.80;4.73;;;;;;;1.17;100.00;100665.50;5091165;28;20218;-78
2021/12/19 03:48:16;;;;;;;5.80;4.87;;;;;;;1.19;100.00;100658.81;5091788;28;20277;-77
2021/12/19 03:50:46;;;;;;;7.07;5.20;;;;;;;1.11;100.00;100652.34;5075310;28;20684;-77
2021/12/19 03:53:15;;;;;;;11.13;6.20;;;;;;;1.21;100.00;100646.13;5083114;28;20198;-78
2021/12/19 03:55:42;;;;;;;4.27;2.97;;;;;;;1.27;100.00;100632.06;5083637;28;20194;-78
2021/12/19 03:58:10;;;;;;;13.03;7.53;;;;;;;1.34;100.00;100639.31;5073029;28;20195;-78
2021/12/19 04:00:37;;;;;;;10.60;7.60;;;;;;;1.12;100.00;100638.78;5075554;28;20581;-77
2021/12/19 04:03:09;;;;;;;7.00;5.33;;;;;;;1.11;100.00;100633.56;5072690;28;20187;-76
2021/12/19 04:05:38;;;;;;;7.93;5.07;;;;;;;1.14;100.00;100624.44;5072831;28;20260;-77
2021/12/19 04:08:06;;;;;;;12.37;6.43;;;;;;;1.07;100.00;100624.84;5092281;28;20222;-77
2021/12/19 04:10:33;;;;;;;4.77;4.27;;;;;;;1.12;100.00;100610.69;5088912;28;20191;-76
2021/12/19 04:13:00;;;;;;;5.60;2.63;;;;;;;1.30;100.00;100616.03;5072876;28;20190;-77
2021/12/19 04:15:27;;;;;;;8.07;5.17;;;;;;;1.08;100.00;100639.38;5073278;28;20195;-78
2021/12/19 04:17:54;;;;;;;6.07;5.47;;;;;;;1.21;100.00;100631.72;5092677;28;20194;-78
2021/12/19 04:20:22;;;;;;;11.10;5.07;;;;;;;1.31;100.00;100634.03;5088965;28;20209;-78
2021/12/19 04:22:51;;;;;;;4.90;2.97;;;;;;;1.04;100.00;100580.38;5073678;28;20190;-79
2021/12/19 04:25:18;;;;;;;6.47;4.27;;;;;;;1.29;100.00;100624.47;5072801;28;20195;-78
2021/12/19 04:27:46;;;;;;;11.43;7.47;;;;;;;1.12;100.00;100613.25;5072556;28;20222;-79
2021/12/19 04:30:15;;;;;;;8.07;6.30;;;;;;;0.97;100.00;100579.13;5071762;28;20191;-78
2021/12/19 04:32:45;;;;;;;10.60;7.17;;;;;;;0.84;100.00;100566.41;5078011;28;20216;-80
2021/12/19 04:35:13;;;;;;;11.23;6.80;;;;;;;1.16;100.00;100622.88;5090223;28;20198;-78
2021/12/19 04:38:20;;;;;;;11.83;6.17;;;;;;;1.18;100.00;100621.28;5092170;28;20222;-79
2021/12/19 04:40:52;;;;;;;7.23;4.97;;;;;;;1.09;100.00;100625.84;5083547;28;20197;-78
2021/12/19 04:51:55;;;;;;;10.47;7.27;;;;;;;1.01;100.00;100614.28;5073209;28;20225;-78
2021/12/19 04:54:33;;;;;;;5.30;4.80;;;;;;;1.03;100.00;100599.94;5072859;28;20198;-78
2021/12/19 04:57:19;;;;;;;4.17;3.47;;;;;;;1.00;100.00;100604.84;5092022;28;20201;-78
2021/12/19 04:59:54;;;;;;;7.17;3.53;;;;;;;0.88;100.00;100583.69;5088768;28;20641;-79
2021/12/19 05:16:00;;;;;;;2.40;2.07;;;;;;;1.11;100.00;100598.72;5092178;28;20205;-77
2021/12/19 05:18:31;;;;;;;7.27;5.07;;;;;;;1.08;100.00;100605.31;5092325;28;20204;-79
2021/12/19 05:21:01;;;;;;;4.53;3.30;;;;;;;1.07;100.00;100611.22;5080763;28;20275;-78
2021/12/19 05:23:38;;;;;;;5.27;3.87;;;;;;;1.06;100.00;100600.13;5071592;28;20199;-77
2021/12/19 05:26:06;;;;;;;17.83;7.43;;;;;;;1.11;100.00;100598.72;5087882;28;20224;-78
2021/12/19 05:28:33;;;;;;;10.00;5.33;;;;;;;0.64;100.00;100526.06;5096716;28;20190;-79
2021/12/19 05:31:01;;;;;;;21.60;10.13;;;;;;;1.01;100.00;100591.28;5089973;28;20203;-78
2021/12/19 05:33:27;;;;;;;22.23;10.53;;;;;;;0.89;100.00;100565.91;5075668;28;20194;-77
2021/12/19 05:36:17;;;;;;;23.07;10.60;;;;;;;1.12;100.00;100589.38;5076425;28;20213;-78
2021/12/19 05:46:57;;;;;;;14.87;7.73;;;;;;;1.10;100.00;100586.75;5075129;28;20322;-77
2021/12/19 05:49:23;;;;;;;20.13;11.47;;;;;;;0.45;100.00;100484.13;5091440;28;20195;-78
2021/12/19 05:51:50;;;;;;;19.17;11.00;;;;;;;1.48;100.00;100581.38;5094746;28;20209;-79
2021/12/19 05:54:17;;;;;;;38.07;15.17;;;;;;;1.29;100.00;100584.50;5093396;28;20198;-78
2021/12/19 05:56:47;;;;;;;24.97;12.70;;;;;;;1.14;100.00;100588.69;5078841;28;20619;-79
2021/12/19 05:59:13;;;;;;;27.10;15.87;;;;;;;0.94;100.00;100576.41;5075390;28;20264;-78
2021/12/19 06:01:42;;;;;;;22.80;10.57;;;;;;;1.15;100.00;100598.13;5075018;28;20183;-79
2021/12/19 06:04:10;;;;;;;26.83;15.00;;;;;;;1.30;100.00;100591.38;5075184;28;20203;-78
2021/12/19 06:06:37;;;;;;;23.93;10.03;;;;;;;1.20;100.00;100589.06;5074697;28;20295;-77
2021/12/19 06:09:05;;;;;;;16.93;10.53;;;;;;;0.99;100.00;100578.47;5082690;28;20198;-78
2021/12/19 06:11:32;;;;;;;14.47;7.97;;;;;;;1.04;100.00;100586.38;5075138;28;20194;-80
2021/12/19 06:14:00;;;;;;;18.33;8.17;;;;;;;0.92;100.00;100565.22;5075192;28;20199;-79
2021/12/19 06:16:27;;;;;;;10.73;7.77;;;;;;;0.85;100.00;100574.19;5074844;28;20259;-79
2021/12/19 06:18:54;;;;;;;21.10;9.83;;;;;;;0.81;100.00;100533.06;5076115;28;20203;-79
2021/12/19 06:21:21;;;;;;;22.50;10.90;;;;;;;0.92;100.00;100586.53;5074878;28;20273;-77
2021/12/19 06:23:47;;;;;;;20.43;9.40;;;;;;;0.96;100.00;100572.28;5075530;28;20248;-77
2021/12/19 06:26:14;;;;;;;21.90;9.20;;;;;;;1.03;100.00;100568.44;5074911;28;20588;-78
2021/12/19 06:28:41;;;;;;;26.30;13.83;;;;;;;1.11;100.00;100572.28;5084531;28;20186;-77
2021/12/19 06:31:09;;;;;;;19.93;10.60;;;;;;;1.11;100.00;100573.19;5093345;28;20691;-78
2021/12/19 06:33:36;;;;;;;13.73;5.80;;;;;;;1.20;100.00;100568.66;5094700;28;20182;-76
2021/12/19 06:36:05;;;;;;;30.73;15.40;;;;;;;1.15;100.00;100572.56;5092531;28;20664;-76
2021/12/19 06:38:32;;;;;;;46.20;18.83;;;;;;;1.12;100.00;100562.19;5081604;28;20183;-79
2021/12/19 06:40:59;;;;;;;18.93;9.80;;;;;;;1.22;100.00;100563.59;5075429;28;20195;-77
2021/12/19 06:43:28;;;;;;;17.20;6.40;;;;;;;1.28;100.00;100559.78;5074289;28;20709;-78
2021/12/19 06:45:56;;;;;;;9.63;5.83;;;;;;;1.29;100.00;100563.19;5077158;28;20197;-78
2021/12/19 06:48:24;;;;;;;12.17;6.80;;;;;;;1.36;100.00;100555.97;5087199;28;20682;-77
2021/12/19 06:50:51;;;;;;;16.63;6.70;;;;;;;1.13;100.00;100509.47;5076069;28;20206;-77
2021/12/19 06:53:19;;;;;;;17.07;8.70;;;;;;;1.30;100.00;100504.53;5073742;28;20206;-77
2021/12/19 06:55:46;;;;;;;20.87;8.27;;;;;;;1.49;100.00;100537.16;5076080;28;20617;-76
2021/12/19 06:58:13;;;;;;;5.13;4.27;;;;;;;1.44;100.00;100534.31;5084720;28;20264;-77
2021/12/19 07:00:40;;;;;;;20.77;9.03;;;;;;;1.24;100.00;100486.31;5086030;28;20193;-76
2021/12/19 07:03:09;;;;;;;10.80;5.87;;;;;;;1.19;100.00;100467.28;5074334;28;20198;-78
2021/12/19 07:05:38;;;;;;;19.70;7.37;;;;;;;1.45;100.00;100495.22;5073350;28;20615;-75
2021/12/19 07:08:05;;;;;;;12.83;7.83;;;;;;;1.35;100.00;100472.50;5073948;28;20223;-76
2021/12/19 07:10:32;;;;;;;13.63;7.80;;;;;;;1.48;100.00;100500.50;5084968;28;20684;-76
2021/12/19 07:12:59;;;;;;;7.90;6.13;;;;;;;1.57;100.00;100509.50;5093513;28;20255;-78
2021/12/19 07:15:27;;;;;;;4.80;3.07;;;;;;;1.75;100.00;100502.88;5083382;28;20202;-77
2021/12/19 07:17:53;;;;;;;7.93;6.23;;;;;;;1.62;100.00;100482.50;5086166;28;20217;-76
2021/12/19 07:20:20;;;;;;;6.90;4.67;;;;;;;1.84;100.00;100488.03;5073840;28;20245;-76
2021/12/19 07:22:49;;;;;;;9.93;5.23;;;;;;;1.85;100.00;100489.81;5073966;28;20198;-76
2021/12/19 07:25:15;;;;;;;46.50;18.77;;;;;;;1.84;100.00;100488.91;5072914;28;20640;-78
2021/12/19 07:27:42;;;;;;;32.83;14.47;;;;;;;1.87;100.00;100491.63;5083453;28;20676;-78
2021/12/19 07:30:10;;;;;;;17.87;7.33;;;;;;;1.93;100.00;100489.41;5072303;28;20631;-77
2021/12/19 07:32:38;;;;;;;16.13;10.57;;;;;;;1.90;100.00;100486.69;5073576;28;20191;-77
2021/12/19 07:35:07;;;;;;;13.17;7.03;;;;;;;2.09;100.00;100470.69;5072979;28;20202;-77
2021/12/19 07:37:36;;;;;;;14.03;8.03;;;;;;;2.01;100.00;100479.63;5080233;28;20322;-75
2021/12/19 07:40:14;;;;;;;8.33;4.80;;;;;;;2.14;100.00;100486.28;5091980;28;20206;-75
2021/12/19 07:42:41;;;;;;;14.30;6.37;;;;;;;1.69;100.00;100410.50;5092619;28;20189;-76
2021/12/19 07:45:10;;;;;;;13.33;8.40;;;;;;;2.15;100.00;100482.91;5090557;28;20665;-80
2021/12/19 07:47:38;;;;;;;9.90;5.87;;;;;;;2.11;100.00;100458.84;5080139;28;20223;-77
2021/12/19 07:50:06;;;;;;;7.53;5.30;;;;;;;2.22;100.00;100485.00;5082258;28;20677;-77
2021/12/19 07:52:33;;;;;;;11.67;5.87;;;;;;;2.33;100.00;100481.34;5083298;28;20286;-78
2021/12/19 07:54:59;;;;;;;7.50;5.03;;;;;;;2.20;100.00;100466.16;5072367;28;20195;-77
2021/12/19 07:57:28;;;;;;;9.37;6.23;;;;;;;2.35;100.00;100473.00;5072329;28;20199;-77
2021/12/19 07:59:54;;;;;;;10.30;7.00;;;;;;;2.35;100.00;100485.78;5071082;28;20562;-77
2021/12/19 08:02:21;;;;;;;10.63;5.43;;;;;;;2.43;100.00;100476.81;5073310;28;20221;-78
2021/12/19 08:04:48;;;;;;;16.23;5.33;;;;;;;2.45;100.00;100480.34;5073109;28;20198;-78
2021/12/19 08:07:17;;;;;;;10.37;5.17;;;;;;;2.46;100.00;100478.69;5072675;28;20234;-75
2021/12/19 08:09:59;;;;;;;12.70;6.70;;;;;;;2.48;100.00;100472.84;5072490;28;20631;-76
2021/12/19 08:12:24;;;;;;;5.13;4.67;;;;;;;2.29;100.00;100428.25;5072649;28;20230;-74
2021/12/19 08:14:53;;;;;;;11.03;6.00;;;;;;;2.65;100.00;100480.50;5072228;28;20657;-73
2021/12/19 08:17:21;;;;;;;6.50;5.33;;;;;;;2.53;100.00;100461.97;5072432;28;20194;-75
2021/12/19 08:19:48;;;;;;;13.57;7.03;;;;;;;2.57;100.00;100477.53;5072654;28;20281;-76
2021/12/19 08:22:15;;;;;;;19.40;9.13;;;;;;;2.68;100.00;100480.66;5072390;28;20206;-76
2021/12/19 08:24:42;;;;;;;14.67;7.07;;;;;;;2.67;100.00;100472.13;5071937;28;20191;-76
2021/12/19 08:27:09;;;;;;;28.03;13.80;;;;;;;2.64;100.00;100471.09;5072156;28;20222;-76
2021/12/19 08:29:36;;;;;;;16.20;8.67;;;;;;;2.74;100.00;100457.97;5071553;28;20191;-75
2021/12/19 08:32:05;;;;;;;17.40;8.87;;;;;;;3.21;100.00;100458.69;5071826;28;20191;-76
2021/12/19 08:34:31;;;;;;;25.83;11.17;;;;;;;3.33;100.00;100402.94;5071166;28;20191;-79
2021/12/19 08:36:59;;;;;;;17.17;9.17;;;;;;;3.18;100.00;100460.22;5070672;28;20231;-79
2021/12/19 08:39:28;;;;;;;20.93;12.20;;;;;;;2.70;100.00;100386.94;5070952;28;20230;-78
2021/12/19 08:41:55;;;;;;;14.13;8.37;;;;;;;3.05;100.00;100439.91;5088092;28;20228;-75
2021/12/19 08:44:22;;;;;;;22.73;9.60;;;;;;;3.00;100.00;100434.53;5078030;28;20206;-76
2021/12/19 08:46:49;;;;;;;15.90;8.97;;;;;;;3.02;100.00;100440.66;5081103;28;20186;-75
2021/12/19 08:49:17;;;;;;;10.20;6.37;;;;;;;3.13;100.00;100426.69;5091969;28;20198;-76
2021/12/19 08:51:44;;;;;;;20.00;8.27;;;;;;;3.13;100.00;100419.00;5084656;28;20201;-77
2021/12/19 08:54:10;;;;;;;14.97;9.03;;;;;;;3.16;100.00;100416.59;5071031;28;20191;-75
2021/12/19 08:56:37;;;;;;;24.13;10.80;;;;;;;3.20;100.00;100415.06;5072028;28;20210;-76
2021/12/19 08:59:04;;;;;;;14.40;8.83;;;;;;;3.27;100.00;100412.88;5071443;28;20669;-76
2021/12/19 09:01:32;;;;;;;15.00;7.63;;;;;;;3.27;100.00;100412.88;5071050;28;20202;-75
2021/12/19 09:03:59;;;;;;;17.90;9.60;;;;;;;3.34;100.00;100417.50;5071421;28;20222;-77
2021/12/19 09:06:27;;;;;;;15.10;8.43;;;;;;;3.37;100.00;100411.63;5071810;28;20203;-74
2021/12/19 09:08:54;;;;;;;18.67;11.10;;;;;;;3.49;100.00;100410.56;5071468;28;20222;-75
2021/12/19 09:11:21;;;;;;;33.70;12.80;;;;;;;3.39;100.00;100385.28;5071607;28;20203;-76
2021/12/19 09:13:47;;;;;;;21.97;9.87;;;;;;;3.23;100.00;100354.59;5071377;28;20209;-75
2021/12/19 09:16:15;;;;;;;25.23;13.03;;;;;;;3.36;100.00;100377.44;5071522;28;20206;-77
2021/12/19 09:18:42;;;;;;;26.03;12.40;;;;;;;3.85;100.00;100398.56;5071168;28;20187;-75
2021/12/19 09:21:09;;;;;;;18.07;11.10;;;;;;;3.80;100.00;100400.06;5071257;28;20634;-78
2021/12/19 09:23:37;;;;;;;30.50;14.50;;;;;;;3.81;100.00;100383.00;5071226;28;20194;-77
2021/12/19 09:26:05;;;;;;;17.30;9.20;;;;;;;3.57;100.00;100334.00;5071426;28;20599;-75
2021/12/19 09:28:32;;;;;;;23.03;10.67;;;;;;;3.88;100.00;100372.22;5071555;28;20230;-77
2021/12/19 09:30:59;;;;;;;12.80;8.53;;;;;;;3.80;100.00;100359.03;5070707;28;20600;-76
2021/12/19 09:33:25;;;;;;;10.07;5.43;;;;;;;3.93;100.00;100363.03;5071086;28;20195;-77
2021/12/19 09:35:52;;;;;;;32.50;12.17;;;;;;;3.94;100.00;100363.09;5071161;28;20198;-77
2021/12/19 09:38:20;;;;;;;25.03;13.03;;;;;;;3.95;100.00;100364.88;5071260;28;20194;-75
2021/12/19 09:40:48;;;;;;;10.90;5.50;;;;;;;4.10;100.00;100364.69;5071271;28;20194;-76
2021/12/19 09:43:41;;;;;;;16.40;9.87;;;;;;;3.78;100.00;100291.41;5071189;28;20199;-76
2021/12/19 09:46:10;;;;;;;14.57;8.07;;;;;;;4.19;100.00;100334.28;5071433;28;20198;-77
2021/12/19 09:48:40;;;;;;;22.80;9.53;;;;;;;4.07;100.00;100322.63;5071106;28;20684;-74
2021/12/19 09:51:07;;;;;;;32.80;10.97;;;;;;;4.21;100.00;100324.13;5071624;28;20647;-76
2021/12/19 09:53:35;;;;;;;9.53;5.73;;;;;;;4.27;100.00;100320.13;5071284;28;20549;-75
2021/12/19 09:56:04;;;;;;;12.63;5.97;;;;;;;4.23;100.00;100328.50;5070826;28;20191;-76
2021/12/19 09:58:31;;;;;;;10.93;4.80;;;;;;;4.24;100.00;100324.25;5071137;28;20273;-76
2021/12/19 10:00:58;;;;;;;11.07;7.10;;;;;;;4.38;100.00;100318.91;5075311;28;20233;-77
2021/12/19 10:03:25;;;;;;;14.77;7.40;;;;;;;4.36;100.00;100302.53;5090747;28;20198;-76
2021/12/19 10:06:14;;;;;;;9.47;4.47;;;;;;;4.34;100.00;100296.47;5080721;28;20229;-72
2021/12/19 10:08:41;;;;;;;23.63;10.43;;;;;;;4.40;100.00;100291.59;5085400;28;20233;-75
2021/12/19 10:11:30;;;;;;;20.57;11.97;;;;;;;4.44;100.00;100283.22;5070165;28;20190;-75
2021/12/19 10:13:57;;;;;;;16.07;6.13;;;;;;;4.53;100.00;100277.56;5074317;28;20191;-74
2021/12/19 10:16:25;;;;;;;14.37;7.53;;;;;;;4.49;100.00;100266.28;5074559;28;20186;-74
2021/12/19 10:18:52;;;;;;;20.83;9.27;;;;;;;4.58;100.00;100278.66;5073848;28;20198;-77
2021/12/19 10:21:19;;;;;;;16.37;7.73;;;;;;;4.59;100.00;100275.28;5074034;28;20214;-75
2021/12/19 10:23:47;;;;;;;12.33;7.30;;;;;;;4.54;100.00;100248.53;5073860;28;20231;-76
2021/12/19 10:26:15;;;;;;;18.67;10.27;;;;;;;4.67;100.00;100266.22;5086553;28;20198;-78
2021/12/19 10:28:51;;;;;;;13.13;5.17;;;;;;;4.68;100.00;100260.25;5096054;28;20631;-78
2021/12/19 10:31:18;;;;;;;14.87;7.97;;;;;;;4.72;100.00;100258.69;5094307;28;20191;-79
2021/12/19 10:33:46;;;;;;;19.90;8.03;;;;;;;4.77;100.00;100246.91;5095408;28;20714;-77
2021/12/19 10:36:13;;;;;;;32.97;13.87;;;;;;;4.90;100.00;100249.16;5078865;28;20257;-77
2021/12/19 10:38:43;;;;;;;47.83;22.67;;;;;;;5.04;100.00;100240.28;5094874;28;20194;-77
2021/12/19 10:41:12;;;;;;;19.40;10.13;;;;;;;5.06;100.00;100217.25;5075809;28;20210;-76
2021/12/19 10:43:46;;;;;;;13.93;7.70;;;;;;;5.64;100.00;100199.72;5074370;28;20195;-78
2021/12/19 10:46:13;;;;;;;16.43;9.20;;;;;;;5.33;100.00;100237.16;5075966;28;20767;-75
2021/12/19 10:48:41;;;;;;;13.70;5.30;;;;;;;5.21;100.00;100230.69;5077731;28;20700;-75
2021/12/19 10:51:10;;;;;;;25.07;11.53;;;;;;;5.35;100.00;100237.22;5086149;28;20190;-72
2021/12/19 10:53:43;;;;;;;22.03;11.00;;;;;;;5.26;100.00;100224.88;5089475;28;20186;-74
2021/12/19 10:56:12;;;;;;;17.13;6.77;;;;;;;5.35;100.00;100214.94;5094047;28;20194;-74
2021/12/19 10:58:47;;;;;;;16.97;7.53;;;;;;;5.49;100.00;100208.63;5079704;28;20260;-74
2021/12/19 11:01:18;;;;;;;17.07;10.70;;;;;;;5.61;100.00;100213.34;5074174;28;20275;-73
2021/12/19 11:03:51;;;;;;;23.37;11.37;;;;;;;5.60;100.00;100193.59;5079037;28;20230;-74
2021/12/19 11:06:37;;;;;;;14.50;8.27;;;;;;;5.56;100.00;100178.88;5079497;28;20187;-75
2021/12/19 11:09:11;;;;;;;23.20;9.43;;;;;;;5.37;100.00;100131.06;5075216;28;20215;-74
2021/12/19 11:11:52;;;;;;;15.67;7.43;;;;;;;5.70;100.00;100158.81;5092423;28;20213;-73
2021/12/19 11:14:23;;;;;;;25.77;10.53;;;;;;;5.60;100.00;100167.00;5093249;28;20321;-73
2021/12/19 11:16:52;;;;;;;19.97;8.67;;;;;;;5.73;100.00;100157.22;5094042;28;20198;-74
2021/12/19 11:19:19;;;;;;;20.37;9.37;;;;;;;5.78;100.00;100145.38;5093768;28;20217;-74
2021/12/19 11:21:46;;;;;;;21.80;7.30;;;;;;;5.70;100.00;100138.22;5074049;28;20198;-74
2021/12/19 11:24:16;;;;;;;26.23;10.57;;;;;;;5.79;100.00;100141.97;5071511;28;20681;-74
2021/12/19 11:26:46;;;;;;;16.63;6.93;;;;;;;5.71;100.00;100117.69;5086071;28;20208;-74
2021/12/19 11:29:14;;;;;;;12.63;8.50;;;;;;;5.66;100.00;100114.09;5083772;28;20616;-75
2021/12/19 11:31:46;;;;;;;17.83;10.07;;;;;;;5.75;100.00;100077.50;5072549;28;20191;-74
2021/12/19 11:34:21;;;;;;;22.27;12.40;;;;;;;5.97;100.00;100100.59;5072634;28;20197;-74
2021/12/19 11:36:52;;;;;;;13.97;9.00;;;;;;;5.98;100.00;100097.22;5073829;28;20225;-74
2021/12/19 11:39:20;;;;;;;20.33;10.90;;;;;;;5.93;100.00;100103.88;5073667;28;20255;-74
2021/12/19 11:42:06;;;;;;;19.83;9.50;;;;;;;5.92;100.00;100087.56;5076912;28;20201;-73
2021/12/19 11:44:35;;;;;;;23.80;9.37;;;;;;;5.99;100.00;100080.97;5071817;28;20276;-74
2021/12/19 11:47:09;;;;;;;17.87;9.97;;;;;;;6.01;100.00;100078.41;5073615;28;20206;-74
2021/12/19 11:49:38;;;;;;;15.37;8.90;;;;;;;6.16;100.00;100063.47;5075742;28;20222;-79
2021/12/19 11:52:25;;;;;;;28.80;13.90;;;;;;;5.98;100.00;100045.75;5089911;28;20198;-75
2021/12/19 11:55:29;;;;;;;22.40;9.20;;;;;;;5.88;100.00;100060.03;5090136;28;20194;-75
2021/12/19 11:58:27;;;;;;;15.47;6.90;;;;;;;5.91;100.00;100059.25;5017359;28;20683;-77
2021/12/19 12:01:04;;;;;;;13.23;7.47;;;;;;;5.84;100.00;100044.38;5092063;28;20198;-74
2021/12/19 12:03:51;;;;;;;19.50;9.30;;;;;;;5.78;100.00;100044.19;5090936;28;20194;-74
2021/12/19 12:06:26;;;;;;;14.87;7.50;;;;;;;5.71;100.00;100035.38;5092431;28;20637;-75
2021/12/19 12:09:25;;;;;;;6.50;5.10;;;;;;;5.71;100.00;100039.63;5087526;28;20221;-73
2021/12/19 12:12:18;;;;;;;11.13;6.37;;;;;;;5.11;100.00;99905.66;5072293;28;20289;-72
2021/12/19 12:14:59;;;;;;;7.77;4.97;;;;;;;5.74;100.00;100019.19;5071769;28;20195;-73